Pagina principale
METAR-TAF:

METAR-TAF

Aeroporti :

Orlando Executive Airport

Orlando, Florida, Stati Uniti

latitudine: 28-32-47N, longitudine: 081-20-09W, altezza: 34 m

Osservazione

Il bollettino è stato emesso 12 minuti fa, alle 12:53 UTC
Vento 8 kt da nord
Temperature 12°C
Umidità 76%
Pressione 1016 hPa
Visibilità: 16.1 km
Cielo sereno

METAR: KORL 281253Z 36008KT 10SM CLR 12/08 A2999 RMK AO2 SLP161 T01220083

Ora: 08:05 (13:05 UTC)


TAF: mancante

Osservazioni e previsioni meteorologiche di più di 4000 aeroporti (messaggi METAR e TAF).

Le stazioni disponibili sono rappresentate dai dischi gialli e rossi sulla carta.

Puntare il mouse per vedere il nome della stazione.

Clicca sopra per visualizzare le osservazioni e previsioni meteorologiche.

Per cambiare la mappa : fare clic sui pulsanti verdi con una croce nera per ingrandire, il pulsante verde con un trattino per diminuire, o sulla freccia verde per le mappe adiacenti.


METAR-TAF: